sensor_id;sensor_type;location;lat;lon;timestamp;temperature;humidity
9820;DHT22;4949;48.482;9.206;2024-03-02T00:04:20;8.00;98.80
9820;DHT22;4949;48.482;9.206;2024-03-02T00:09:21;7.90;98.90
9820;DHT22;4949;48.482;9.206;2024-03-02T00:14:22;8.40;99.00
9820;DHT22;4949;48.482;9.206;2024-03-02T00:19:25;7.90;98.70
9820;DHT22;4949;48.482;9.206;2024-03-02T00:24:35;7.80;98.70
9820;DHT22;4949;48.482;9.206;2024-03-02T00:29:36;7.90;99.20
9820;DHT22;4949;48.482;9.206;2024-03-02T00:34:39;7.80;99.40
9820;DHT22;4949;48.482;9.206;2024-03-02T00:39:40;7.60;99.50
9820;DHT22;4949;48.482;9.206;2024-03-02T00:44:41;7.70;99.20
9820;DHT22;4949;48.482;9.206;2024-03-02T00:49:41;7.70;99.30
9820;DHT22;4949;48.482;9.206;2024-03-02T00:54:42;7.70;99.40
9820;DHT22;4949;48.482;9.206;2024-03-02T00:59:44;7.70;99.70
9820;DHT22;4949;48.482;9.206;2024-03-02T01:04:46;7.70;99.90
9820;DHT22;4949;48.482;9.206;2024-03-02T01:09:47;7.90;99.90
9820;DHT22;4949;48.482;9.206;2024-03-02T01:14:48;7.90;99.90
9820;DHT22;4949;48.482;9.206;2024-03-02T01:19:48;7.40;99.90
9820;DHT22;4949;48.482;9.206;2024-03-02T01:24:49;7.60;99.90
9820;DHT22;4949;48.482;9.206;2024-03-02T01:29:50;7.30;99.90
9820;DHT22;4949;48.482;9.206;2024-03-02T01:34:51;7.20;99.90
9820;DHT22;4949;48.482;9.206;2024-03-02T01:39:52;7.20;99.90
9820;DHT22;4949;48.482;9.206;2024-03-02T01:44:52;7.00;99.90
9820;DHT22;4949;48.482;9.206;2024-03-02T01:49:53;7.00;99.90
9820;DHT22;4949;48.482;9.206;2024-03-02T01:54:54;7.00;99.90
9820;DHT22;4949;48.482;9.206;2024-03-02T01:59:55;7.30;99.90
9820;DHT22;4949;48.482;9.206;2024-03-02T02:04:56;6.80;99.90
9820;DHT22;4949;48.482;9.206;2024-03-02T02:09:57;6.70;99.90
9820;DHT22;4949;48.482;9.206;2024-03-02T02:14:58;6.80;99.90
9820;DHT22;4949;48.482;9.206;2024-03-02T02:20:01;6.50;99.90
9820;DHT22;4949;48.482;9.206;2024-03-02T02:25:02;6.40;99.90
9820;DHT22;4949;48.482;9.206;2024-03-02T02:30:03;6.30;99.90
9820;DHT22;4949;48.482;9.206;2024-03-02T02:35:05;6.20;99.90
9820;DHT22;4949;48.482;9.206;2024-03-02T02:40:06;6.40;99.90
9820;DHT22;4949;48.482;9.206;2024-03-02T02:45:08;6.10;99.90
9820;DHT22;4949;48.482;9.206;2024-03-02T02:50:09;6.00;99.90
9820;DHT22;4949;48.482;9.206;2024-03-02T02:55:13;6.00;99.90
9820;DHT22;4949;48.482;9.206;2024-03-02T03:00:15;5.90;99.90
9820;DHT22;4949;48.482;9.206;2024-03-02T03:05:17;5.80;99.90
9820;DHT22;4949;48.482;9.206;2024-03-02T03:10:18;5.80;99.90
9820;DHT22;4949;48.482;9.206;2024-03-02T03:15:23;5.70;99.90
9820;DHT22;4949;48.482;9.206;2024-03-02T03:20:24;5.60;99.90
9820;DHT22;4949;48.482;9.206;2024-03-02T03:25:25;5.70;99.90
9820;DHT22;4949;48.482;9.206;2024-03-02T03:30:26;5.60;99.90
9820;DHT22;4949;48.482;9.206;2024-03-02T03:35:28;5.90;99.90
9820;DHT22;4949;48.482;9.206;2024-03-02T03:40:28;5.40;99.90
9820;DHT22;4949;48.482;9.206;2024-03-02T03:45:29;5.40;99.90
9820;DHT22;4949;48.482;9.206;2024-03-02T03:50:30;5.30;99.90
9820;DHT22;4949;48.482;9.206;2024-03-02T03:55:31;5.60;99.90
9820;DHT22;4949;48.482;9.206;2024-03-02T04:00:32;5.30;99.90
9820;DHT22;4949;48.482;9.206;2024-03-02T04:05:32;5.40;99.90
9820;DHT22;4949;48.482;9.206;2024-03-02T04:10:33;5.10;99.90
9820;DHT22;4949;48.482;9.206;2024-03-02T04:15:34;5.10;99.90
9820;DHT22;4949;48.482;9.206;2024-03-02T04:20:35;5.30;99.90
9820;DHT22;4949;48.482;9.206;2024-03-02T04:25:35;5.20;99.90
9820;DHT22;4949;48.482;9.206;2024-03-02T04:30:36;5.70;99.90
9820;DHT22;4949;48.482;9.206;2024-03-02T04:35:37;5.30;99.90
9820;DHT22;4949;48.482;9.206;2024-03-02T04:40:38;5.40;99.90
9820;DHT22;4949;48.482;9.206;2024-03-02T04:45:38;5.40;99.90
9820;DHT22;4949;48.482;9.206;2024-03-02T04:50:39;5.70;99.90
9820;DHT22;4949;48.482;9.206;2024-03-02T04:55:40;5.30;99.90
9820;DHT22;4949;48.482;9.206;2024-03-02T05:00:41;5.60;99.90
9820;DHT22;4949;48.482;9.206;2024-03-02T05:05:43;4.80;99.90
9820;DHT22;4949;48.482;9.206;2024-03-02T05:10:44;5.20;99.90
9820;DHT22;4949;48.482;9.206;2024-03-02T05:15:46;5.30;99.90
9820;DHT22;4949;48.482;9.206;2024-03-02T05:20:47;5.50;99.90
9820;DHT22;4949;48.482;9.206;2024-03-02T05:25:48;5.50;99.90
9820;DHT22;4949;48.482;9.206;2024-03-02T05:30:51;5.60;99.90
9820;DHT22;4949;48.482;9.206;2024-03-02T05:35:51;5.60;99.90
9820;DHT22;4949;48.482;9.206;2024-03-02T05:40:52;6.00;99.90
9820;DHT22;4949;48.482;9.206;2024-03-02T05:45:53;5.90;99.90
9820;DHT22;4949;48.482;9.206;2024-03-02T05:50:54;6.00;99.90
9820;DHT22;4949;48.482;9.206;2024-03-02T05:55:54;5.70;99.90
9820;DHT22;4949;48.482;9.206;2024-03-02T06:00:56;5.60;99.90
9820;DHT22;4949;48.482;9.206;2024-03-02T06:05:59;5.90;99.90
9820;DHT22;4949;48.482;9.206;2024-03-02T06:11:00;5.70;99.90
9820;DHT22;4949;48.482;9.206;2024-03-02T06:16:01;5.60;99.90
9820;DHT22;4949;48.482;9.206;2024-03-02T06:21:02;5.90;99.90
9820;DHT22;4949;48.482;9.206;2024-03-02T06:26:03;5.70;99.90
9820;DHT22;4949;48.482;9.206;2024-03-02T06:31:04;5.90;99.90
9820;DHT22;4949;48.482;9.206;2024-03-02T06:36:05;5.90;99.90
9820;DHT22;4949;48.482;9.206;2024-03-02T06:41:08;6.00;99.90
9820;DHT22;4949;48.482;9.206;2024-03-02T06:46:11;6.00;99.90
9820;DHT22;4949;48.482;9.206;2024-03-02T06:51:15;6.30;99.90
9820;DHT22;4949;48.482;9.206;2024-03-02T06:56:16;6.00;99.90
9820;DHT22;4949;48.482;9.206;2024-03-02T07:01:17;6.10;99.90
9820;DHT22;4949;48.482;9.206;2024-03-02T07:06:17;6.10;99.90
9820;DHT22;4949;48.482;9.206;2024-03-02T07:11:18;6.50;99.90
9820;DHT22;4949;48.482;9.206;2024-03-02T07:16:21;6.30;99.90
9820;DHT22;4949;48.482;9.206;2024-03-02T07:21:28;6.60;99.90
9820;DHT22;4949;48.482;9.206;2024-03-02T07:26:30;6.40;99.90
9820;DHT22;4949;48.482;9.206;2024-03-02T07:31:31;6.60;99.90
9820;DHT22;4949;48.482;9.206;2024-03-02T07:36:32;6.70;99.90
9820;DHT22;4949;48.482;9.206;2024-03-02T07:41:33;6.90;99.90
9820;DHT22;4949;48.482;9.206;2024-03-02T07:46:37;6.80;99.90
9820;DHT22;4949;48.482;9.206;2024-03-02T07:51:37;6.80;99.90
9820;DHT22;4949;48.482;9.206;2024-03-02T07:56:39;6.90;99.90
9820;DHT22;4949;48.482;9.206;2024-03-02T08:01:42;6.90;99.80
9820;DHT22;4949;48.482;9.206;2024-03-02T08:06:43;7.50;99.90
9820;DHT22;4949;48.482;9.206;2024-03-02T08:11:43;7.00;99.90
9820;DHT22;4949;48.482;9.206;2024-03-02T08:16:45;7.40;99.90
9820;DHT22;4949;48.482;9.206;2024-03-02T08:21:48;7.20;99.90
9820;DHT22;4949;48.482;9.206;2024-03-02T08:26:51;7.40;99.70
9820;DHT22;4949;48.482;9.206;2024-03-02T08:31:53;7.50;99.60
9820;DHT22;4949;48.482;9.206;2024-03-02T08:36:54;7.70;99.60
9820;DHT22;4949;48.482;9.206;2024-03-02T08:41:57;8.10;99.30
9820;DHT22;4949;48.482;9.206;2024-03-02T08:46:58;8.00;98.50
9820;DHT22;4949;48.482;9.206;2024-03-02T08:52:01;8.10;98.00
9820;DHT22;4949;48.482;9.206;2024-03-02T08:57:02;8.10;98.10
9820;DHT22;4949;48.482;9.206;2024-03-02T09:02:03;8.20;97.90
9820;DHT22;4949;48.482;9.206;2024-03-02T09:07:04;8.20;98.30
9820;DHT22;4949;48.482;9.206;2024-03-02T09:12:06;8.20;98.50
9820;DHT22;4949;48.482;9.206;2024-03-02T09:17:07;8.20;98.90
9820;DHT22;4949;48.482;9.206;2024-03-02T09:22:13;8.20;98.50
9820;DHT22;4949;48.482;9.206;2024-03-02T09:27:14;8.20;98.80
9820;DHT22;4949;48.482;9.206;2024-03-02T09:32:15;8.30;99.20
9820;DHT22;4949;48.482;9.206;2024-03-02T09:37:16;8.40;99.10
9820;DHT22;4949;48.482;9.206;2024-03-02T09:42:19;8.70;99.00
9820;DHT22;4949;48.482;9.206;2024-03-02T09:47:22;9.00;98.40
9820;DHT22;4949;48.482;9.206;2024-03-02T09:52:23;9.40;97.70
9820;DHT22;4949;48.482;9.206;2024-03-02T09:57:24;9.90;96.20
9820;DHT22;4949;48.482;9.206;2024-03-02T10:02:24;10.20;95.00
9820;DHT22;4949;48.482;9.206;2024-03-02T10:07:25;10.90;94.80
9820;DHT22;4949;48.482;9.206;2024-03-02T10:12:26;10.80;94.30
9820;DHT22;4949;48.482;9.206;2024-03-02T10:17:31;11.20;93.50
9820;DHT22;4949;48.482;9.206;2024-03-02T10:22:32;11.50;92.20
9820;DHT22;4949;48.482;9.206;2024-03-02T10:27:35;11.90;91.60
9820;DHT22;4949;48.482;9.206;2024-03-02T10:32:36;12.30;91.10
9820;DHT22;4949;48.482;9.206;2024-03-02T10:37:41;12.60;90.80
9820;DHT22;4949;48.482;9.206;2024-03-02T10:42:44;13.00;89.60
9820;DHT22;4949;48.482;9.206;2024-03-02T10:47:47;13.30;86.80
9820;DHT22;4949;48.482;9.206;2024-03-02T10:52:48;13.60;86.60
9820;DHT22;4949;48.482;9.206;2024-03-02T10:57:54;13.90;84.00
9820;DHT22;4949;48.482;9.206;2024-03-02T11:02:58;14.20;82.20
9820;DHT22;4949;48.482;9.206;2024-03-02T11:08:18;14.50;80.10
9820;DHT22;4949;48.482;9.206;2024-03-02T11:13:30;14.70;81.20
9820;DHT22;4949;48.482;9.206;2024-03-02T11:18:32;15.40;93.40
9820;DHT22;4949;48.482;9.206;2024-03-02T11:23:34;15.60;82.70
9820;DHT22;4949;48.482;9.206;2024-03-02T11:28:35;16.10;85.60
9820;DHT22;4949;48.482;9.206;2024-03-02T11:33:37;16.00;74.60
9820;DHT22;4949;48.482;9.206;2024-03-02T11:38:43;16.00;74.30
9820;DHT22;4949;48.482;9.206;2024-03-02T11:43:45;16.20;76.30
9820;DHT22;4949;48.482;9.206;2024-03-02T11:48:46;16.50;73.00
9820;DHT22;4949;48.482;9.206;2024-03-02T11:53:50;16.90;70.50
9820;DHT22;4949;48.482;9.206;2024-03-02T11:58:53;16.70;68.00
9820;DHT22;4949;48.482;9.206;2024-03-02T12:03:58;16.70;67.60
9820;DHT22;4949;48.482;9.206;2024-03-02T12:09:02;16.80;65.80
9820;DHT22;4949;48.482;9.206;2024-03-02T12:14:02;17.00;67.30
9820;DHT22;4949;48.482;9.206;2024-03-02T12:19:05;17.50;65.30
9820;DHT22;4949;48.482;9.206;2024-03-02T12:24:06;17.70;63.70
9820;DHT22;4949;48.482;9.206;2024-03-02T12:29:07;17.70;62.30
9820;DHT22;4949;48.482;9.206;2024-03-02T12:34:10;18.00;63.40
9820;DHT22;4949;48.482;9.206;2024-03-02T12:39:16;18.10;61.60
9820;DHT22;4949;48.482;9.206;2024-03-02T12:44:17;18.20;60.70
9820;DHT22;4949;48.482;9.206;2024-03-02T12:49:22;18.00;60.50
9820;DHT22;4949;48.482;9.206;2024-03-02T12:54:22;17.90;60.40
9820;DHT22;4949;48.482;9.206;2024-03-02T12:59:25;18.00;61.20
9820;DHT22;4949;48.482;9.206;2024-03-02T13:04:28;18.20;59.40
9820;DHT22;4949;48.482;9.206;2024-03-02T13:09:30;18.40;58.70
9820;DHT22;4949;48.482;9.206;2024-03-02T13:14:33;18.50;58.70
9820;DHT22;4949;48.482;9.206;2024-03-02T13:19:36;18.70;57.10
9820;DHT22;4949;48.482;9.206;2024-03-02T13:24:37;18.80;56.20
9820;DHT22;4949;48.482;9.206;2024-03-02T13:29:38;18.70;55.70
9820;DHT22;4949;48.482;9.206;2024-03-02T13:34:38;18.60;56.50
9820;DHT22;4949;48.482;9.206;2024-03-02T13:39:39;18.60;55.20
9820;DHT22;4949;48.482;9.206;2024-03-02T13:44:43;18.70;55.40
9820;DHT22;4949;48.482;9.206;2024-03-02T13:49:47;18.90;55.40
9820;DHT22;4949;48.482;9.206;2024-03-02T13:54:49;18.90;53.90
9820;DHT22;4949;48.482;9.206;2024-03-02T13:59:52;18.90;54.50
9820;DHT22;4949;48.482;9.206;2024-03-02T14:04:53;18.80;53.60
9820;DHT22;4949;48.482;9.206;2024-03-02T14:09:57;18.70;54.40
9820;DHT22;4949;48.482;9.206;2024-03-02T14:14:58;18.70;54.80
9820;DHT22;4949;48.482;9.206;2024-03-02T14:19:59;18.70;52.80
9820;DHT22;4949;48.482;9.206;2024-03-02T14:25:00;18.80;53.90
9820;DHT22;4949;48.482;9.206;2024-03-02T14:30:03;18.90;53.70
9820;DHT22;4949;48.482;9.206;2024-03-02T14:35:05;19.10;52.40
9820;DHT22;4949;48.482;9.206;2024-03-02T14:40:10;19.30;51.90
9820;DHT22;4949;48.482;9.206;2024-03-02T14:45:13;19.40;50.30
9820;DHT22;4949;48.482;9.206;2024-03-02T14:50:16;19.50;49.30
9820;DHT22;4949;48.482;9.206;2024-03-02T14:55:17;19.50;48.50
9820;DHT22;4949;48.482;9.206;2024-03-02T15:00:18;19.60;47.80
9820;DHT22;4949;48.482;9.206;2024-03-02T15:05:19;19.80;46.10
9820;DHT22;4949;48.482;9.206;2024-03-02T15:10:20;19.80;43.80
9820;DHT22;4949;48.482;9.206;2024-03-02T15:15:21;19.50;42.20
9820;DHT22;4949;48.482;9.206;2024-03-02T15:20:24;19.10;42.70
9820;DHT22;4949;48.482;9.206;2024-03-02T15:25:27;18.60;42.20
9820;DHT22;4949;48.482;9.206;2024-03-02T15:30:30;18.20;43.10
9820;DHT22;4949;48.482;9.206;2024-03-02T15:35:31;18.00;43.80
9820;DHT22;4949;48.482;9.206;2024-03-02T15:40:32;17.70;45.10
9820;DHT22;4949;48.482;9.206;2024-03-02T15:45:35;17.50;46.10
9820;DHT22;4949;48.482;9.206;2024-03-02T15:50:36;17.30;47.20
9820;DHT22;4949;48.482;9.206;2024-03-02T15:55:38;17.00;49.80
9820;DHT22;4949;48.482;9.206;2024-03-02T16:00:39;16.80;51.20
9820;DHT22;4949;48.482;9.206;2024-03-02T16:05:43;16.80;54.10
9820;DHT22;4949;48.482;9.206;2024-03-02T16:10:46;16.70;56.90
9820;DHT22;4949;48.482;9.206;2024-03-02T16:15:49;16.70;59.80
9820;DHT22;4949;48.482;9.206;2024-03-02T16:20:50;16.70;57.90
9820;DHT22;4949;48.482;9.206;2024-03-02T16:25:50;16.40;61.80
9820;DHT22;4949;48.482;9.206;2024-03-02T16:30:51;16.10;62.50
9820;DHT22;4949;48.482;9.206;2024-03-02T16:35:53;15.90;66.60
9820;DHT22;4949;48.482;9.206;2024-03-02T16:40:54;15.80;66.50
9820;DHT22;4949;48.482;9.206;2024-03-02T16:45:57;15.70;68.90
9820;DHT22;4949;48.482;9.206;2024-03-02T16:50:58;15.40;71.90
9820;DHT22;4949;48.482;9.206;2024-03-02T16:56:02;15.30;72.10
9820;DHT22;4949;48.482;9.206;2024-03-02T17:01:06;15.10;76.00
9820;DHT22;4949;48.482;9.206;2024-03-02T17:06:07;15.00;77.80
9820;DHT22;4949;48.482;9.206;2024-03-02T17:11:08;14.90;78.20
9820;DHT22;4949;48.482;9.206;2024-03-02T17:16:11;15.10;80.60
9820;DHT22;4949;48.482;9.206;2024-03-02T17:21:14;15.20;79.80
9820;DHT22;4949;48.482;9.206;2024-03-02T17:26:14;15.10;79.30
9820;DHT22;4949;48.482;9.206;2024-03-02T17:31:18;14.90;81.50
9820;DHT22;4949;48.482;9.206;2024-03-02T17:36:18;14.90;83.00
9820;DHT22;4949;48.482;9.206;2024-03-02T17:41:19;15.00;84.80
9820;DHT22;4949;48.482;9.206;2024-03-02T17:46:20;15.10;83.50
9820;DHT22;4949;48.482;9.206;2024-03-02T17:51:20;15.10;83.60
9820;DHT22;4949;48.482;9.206;2024-03-02T17:56:21;15.10;83.70
9820;DHT22;4949;48.482;9.206;2024-03-02T18:01:22;15.20;83.80
9820;DHT22;4949;48.482;9.206;2024-03-02T18:06:23;15.10;83.40
9820;DHT22;4949;48.482;9.206;2024-03-02T18:11:24;15.00;84.50
9820;DHT22;4949;48.482;9.206;2024-03-02T18:16:27;14.70;84.70
9820;DHT22;4949;48.482;9.206;2024-03-02T18:21:27;14.40;85.90
9820;DHT22;4949;48.482;9.206;2024-03-02T18:26:29;14.20;87.10
9820;DHT22;4949;48.482;9.206;2024-03-02T18:31:29;14.00;88.00
9820;DHT22;4949;48.482;9.206;2024-03-02T18:36:33;13.90;89.00
9820;DHT22;4949;48.482;9.206;2024-03-02T18:41:34;13.70;89.40
9820;DHT22;4949;48.482;9.206;2024-03-02T18:46:34;13.60;89.20
9820;DHT22;4949;48.482;9.206;2024-03-02T18:51:35;13.50;89.70
9820;DHT22;4949;48.482;9.206;2024-03-02T18:56:39;13.40;90.10
9820;DHT22;4949;48.482;9.206;2024-03-02T19:01:40;13.20;90.70
9820;DHT22;4949;48.482;9.206;2024-03-02T19:06:41;13.20;90.40
9820;DHT22;4949;48.482;9.206;2024-03-02T19:11:42;13.10;90.60
9820;DHT22;4949;48.482;9.206;2024-03-02T19:16:43;13.10;90.40
9820;DHT22;4949;48.482;9.206;2024-03-02T19:21:44;13.00;90.60
9820;DHT22;4949;48.482;9.206;2024-03-02T19:26:46;12.80;91.40
9820;DHT22;4949;48.482;9.206;2024-03-02T19:31:46;12.70;91.00
9820;DHT22;4949;48.482;9.206;2024-03-02T19:36:47;12.70;90.80
9820;DHT22;4949;48.482;9.206;2024-03-02T19:41:48;12.60;91.10
9820;DHT22;4949;48.482;9.206;2024-03-02T19:46:49;12.50;91.40
9820;DHT22;4949;48.482;9.206;2024-03-02T19:51:49;12.30;91.60
9820;DHT22;4949;48.482;9.206;2024-03-02T19:56:51;12.30;91.80
9820;DHT22;4949;48.482;9.206;2024-03-02T20:01:54;12.20;92.10
9820;DHT22;4949;48.482;9.206;2024-03-02T20:06:58;12.20;92.10
9820;DHT22;4949;48.482;9.206;2024-03-02T20:11:58;12.10;92.50
9820;DHT22;4949;48.482;9.206;2024-03-02T20:17:00;12.30;92.70
9820;DHT22;4949;48.482;9.206;2024-03-02T20:22:01;12.00;92.50
9820;DHT22;4949;48.482;9.206;2024-03-02T20:27:01;11.90;92.50
9820;DHT22;4949;48.482;9.206;2024-03-02T20:32:05;12.40;93.00
9820;DHT22;4949;48.482;9.206;2024-03-02T20:37:07;11.80;92.80
9820;DHT22;4949;48.482;9.206;2024-03-02T20:42:10;11.70;93.20
9820;DHT22;4949;48.482;9.206;2024-03-02T20:47:11;11.70;93.30
9820;DHT22;4949;48.482;9.206;2024-03-02T20:52:12;11.60;93.40
9820;DHT22;4949;48.482;9.206;2024-03-02T20:57:12;11.80;93.80
9820;DHT22;4949;48.482;9.206;2024-03-02T21:02:13;11.50;93.60
9820;DHT22;4949;48.482;9.206;2024-03-02T21:07:14;11.40;93.80
9820;DHT22;4949;48.482;9.206;2024-03-02T21:12:15;11.30;94.10
9820;DHT22;4949;48.482;9.206;2024-03-02T21:17:18;11.10;94.50
9820;DHT22;4949;48.482;9.206;2024-03-02T21:22:19;11.00;94.70
9820;DHT22;4949;48.482;9.206;2024-03-02T21:27:22;11.10;94.70
9820;DHT22;4949;48.482;9.206;2024-03-02T21:32:22;11.50;95.00
9820;DHT22;4949;48.482;9.206;2024-03-02T21:37:26;11.00;94.90
9820;DHT22;4949;48.482;9.206;2024-03-02T21:42:30;10.90;95.30
9820;DHT22;4949;48.482;9.206;2024-03-02T21:47:31;10.80;95.30
9820;DHT22;4949;48.482;9.206;2024-03-02T21:52:32;10.90;95.00
9820;DHT22;4949;48.482;9.206;2024-03-02T21:57:33;10.80;95.10
9820;DHT22;4949;48.482;9.206;2024-03-02T22:02:34;10.70;95.50
9820;DHT22;4949;48.482;9.206;2024-03-02T22:07:35;10.70;95.60
9820;DHT22;4949;48.482;9.206;2024-03-02T22:12:36;10.70;95.60
9820;DHT22;4949;48.482;9.206;2024-03-02T22:17:37;10.90;96.00
9820;DHT22;4949;48.482;9.206;2024-03-02T22:22:40;10.40;96.20
9820;DHT22;4949;48.482;9.206;2024-03-02T22:27:41;10.30;96.40
9820;DHT22;4949;48.482;9.206;2024-03-02T22:32:41;10.20;96.70
9820;DHT22;4949;48.482;9.206;2024-03-02T22:37:44;10.00;97.00
9820;DHT22;4949;48.482;9.206;2024-03-02T22:42:45;9.90;97.80
9820;DHT22;4949;48.482;9.206;2024-03-02T22:47:46;10.00;97.50
9820;DHT22;4949;48.482;9.206;2024-03-02T22:52:47;9.90;97.90
9820;DHT22;4949;48.482;9.206;2024-03-02T22:57:48;10.00;97.40
9820;DHT22;4949;48.482;9.206;2024-03-02T23:02:49;10.30;97.60
9820;DHT22;4949;48.482;9.206;2024-03-02T23:07:51;10.00;97.30
9820;DHT22;4949;48.482;9.206;2024-03-02T23:12:52;10.00;97.30
9820;DHT22;4949;48.482;9.206;2024-03-02T23:17:52;10.00;97.10
9820;DHT22;4949;48.482;9.206;2024-03-02T23:22:54;10.10;97.10
9820;DHT22;4949;48.482;9.206;2024-03-02T23:27:55;10.40;97.50
9820;DHT22;4949;48.482;9.206;2024-03-02T23:32:56;10.40;97.10
9820;DHT22;4949;48.482;9.206;2024-03-02T23:37:57;10.20;96.60
9820;DHT22;4949;48.482;9.206;2024-03-02T23:43:00;10.30;96.50
9820;DHT22;4949;48.482;9.206;2024-03-02T23:48:02;10.40;96.70
9820;DHT22;4949;48.482;9.206;2024-03-02T23:53:03;10.20;96.70
9820;DHT22;4949;48.482;9.206;2024-03-02T23:58:04;10.00;96.90
